createdAt,value
2019-01-27T00:00:56.174Z,10.77
2019-01-27T00:04:01.576Z,5.43
2019-01-27T00:07:07.030Z,4.73
2019-01-27T00:10:12.492Z,5.90
2019-01-27T00:13:17.833Z,5.77
2019-01-27T00:16:23.153Z,5.03
2019-01-27T00:19:28.545Z,4.10
2019-01-27T00:22:33.828Z,4.17
2019-01-27T00:25:42.144Z,5.03
2019-01-27T00:28:47.365Z,5.83
2019-01-27T00:31:52.636Z,3.33
2019-01-27T00:34:58.013Z,4.13
2019-01-27T00:38:03.266Z,5.10
2019-01-27T00:41:08.522Z,2.93
2019-01-27T00:44:13.762Z,5.00
2019-01-27T00:47:19.004Z,3.07
2019-01-27T00:50:24.327Z,3.60
2019-01-27T00:53:29.703Z,3.10
2019-01-27T00:56:34.962Z,3.23
2019-01-27T00:59:40.200Z,3.20
2019-01-27T01:02:45.508Z,2.93
2019-01-27T01:05:50.783Z,3.93
2019-01-27T01:08:56.060Z,4.67
2019-01-27T01:12:01.437Z,3.00
2019-01-27T01:15:09.105Z,2.90
2019-01-27T01:18:14.580Z,3.77
2019-01-27T01:21:20.030Z,2.83
2019-01-27T01:24:25.413Z,4.87
2019-01-27T01:27:31.781Z,3.77
2019-01-27T01:30:37.127Z,4.23
2019-01-27T01:33:42.385Z,3.33
2019-01-27T01:36:47.660Z,3.23
2019-01-27T01:39:52.962Z,3.57
2019-01-27T01:42:58.237Z,3.30
2019-01-27T01:46:03.540Z,3.20
2019-01-27T01:49:08.860Z,2.57
2019-01-27T01:52:14.211Z,3.00
2019-01-27T01:55:19.684Z,3.53
2019-01-27T01:58:24.965Z,2.47
2019-01-27T02:01:30.177Z,2.60
2019-01-27T02:04:35.484Z,2.70
2019-01-27T02:07:40.792Z,5.90
2019-01-27T02:10:46.063Z,2.83
2019-01-27T02:13:51.412Z,3.40
2019-01-27T02:16:56.721Z,2.20
2019-01-27T02:20:02.040Z,2.10
2019-01-27T02:23:09.560Z,2.10
2019-01-27T02:26:14.845Z,2.90
2019-01-27T02:29:20.122Z,2.47
2019-01-27T02:32:25.398Z,1.90
2019-01-27T02:35:30.857Z,1.87
2019-01-27T02:38:36.132Z,2.40
2019-01-27T02:41:41.422Z,1.83
2019-01-27T02:44:46.645Z,2.40
2019-01-27T02:47:51.935Z,2.00
2019-01-27T02:50:57.152Z,2.10
2019-01-27T02:54:02.396Z,1.70
2019-01-27T02:57:07.735Z,1.90
2019-01-27T03:00:13.469Z,1.90
2019-01-27T03:03:19.920Z,2.00
2019-01-27T03:06:47.107Z,2.17
2019-01-27T03:09:52.361Z,2.10
2019-01-27T03:12:57.656Z,1.90
2019-01-27T03:16:02.905Z,2.03
2019-01-27T03:19:08.241Z,4.93
2019-01-27T03:22:13.576Z,2.60
2019-01-27T03:25:21.235Z,1.67
2019-01-27T03:28:26.442Z,1.70
2019-01-27T03:31:31.737Z,1.70
2019-01-27T03:34:36.988Z,1.70
2019-01-27T03:37:42.234Z,1.87
2019-01-27T03:40:47.491Z,1.73
2019-01-27T03:43:52.718Z,1.80
2019-01-27T03:46:57.992Z,1.70
2019-01-27T03:50:03.219Z,1.73
2019-01-27T03:53:08.690Z,1.93
2019-01-27T03:56:13.971Z,1.80
2019-01-27T03:59:20.179Z,1.60
2019-01-27T04:02:25.520Z,1.80
2019-01-27T04:05:30.796Z,1.57
2019-01-27T04:08:36.069Z,1.60
2019-01-27T04:11:41.401Z,1.63
2019-01-27T04:14:46.681Z,1.60
2019-01-27T04:17:52.010Z,2.40
2019-01-27T04:20:57.296Z,1.97
2019-01-27T04:24:02.570Z,1.80
2019-01-27T04:27:07.954Z,1.67
2019-01-27T04:30:16.675Z,1.93
2019-01-27T04:33:21.931Z,2.03
2019-01-27T04:36:27.212Z,1.77
2019-01-27T04:39:32.530Z,1.50
2019-01-27T04:42:37.756Z,1.90
2019-01-27T04:45:42.981Z,2.00
2019-01-27T04:48:49.150Z,2.00
2019-01-27T04:51:54.417Z,2.17
2019-01-27T04:55:00.385Z,1.80
2019-01-27T04:58:06.288Z,1.60
2019-01-27T05:01:11.590Z,5.20
2019-01-27T05:04:26.812Z,1.60
2019-01-27T05:07:32.019Z,1.90
2019-01-27T05:10:37.320Z,1.97
2019-01-27T05:13:42.645Z,2.00
2019-01-27T05:16:47.863Z,2.20
2019-01-27T05:19:53.100Z,3.50
2019-01-27T05:22:58.478Z,1.77
2019-01-27T05:26:03.782Z,2.23
2019-01-27T05:29:09.125Z,1.80
2019-01-27T05:32:14.418Z,1.37
2019-01-27T05:35:19.689Z,1.30
2019-01-27T05:38:24.967Z,1.50
2019-01-27T05:41:30.204Z,2.13
2019-01-27T05:44:35.484Z,1.60
2019-01-27T05:47:40.761Z,2.10
2019-01-27T05:50:46.085Z,1.50
2019-01-27T05:53:51.411Z,1.40
2019-01-27T05:56:56.870Z,1.50
2019-01-27T06:00:02.200Z,2.90
2019-01-27T06:03:07.409Z,1.30
2019-01-27T06:06:12.745Z,1.30
2019-01-27T06:09:17.945Z,3.10
2019-01-27T06:12:23.268Z,1.90
2019-01-27T06:15:28.845Z,1.70
2019-01-27T06:18:34.089Z,1.50
2019-01-27T06:21:42.111Z,1.20
2019-01-27T06:24:47.368Z,1.33
2019-01-27T06:27:52.597Z,1.30
2019-01-27T06:30:57.859Z,5.03
2019-01-27T06:34:09.340Z,1.23
2019-01-27T06:37:14.609Z,1.30
2019-01-27T06:40:19.862Z,1.47
2019-01-27T06:43:25.135Z,1.30
2019-01-27T06:46:30.423Z,1.17
2019-01-27T06:49:36.645Z,1.60
2019-01-27T06:52:41.920Z,1.00
2019-01-27T06:55:47.198Z,1.53
2019-01-27T06:59:20.291Z,1.10
2019-01-27T07:02:29.914Z,1.53
2019-01-27T07:05:54.129Z,1.30
2019-01-27T07:09:10.674Z,1.27
2019-01-27T07:12:40.885Z,1.10
2019-01-27T07:15:57.701Z,1.17
2019-01-27T07:19:11.665Z,1.20
2019-01-27T07:22:43.414Z,1.17
2019-01-27T07:26:05.780Z,1.40
2019-01-27T07:29:48.220Z,1.30
2019-01-27T07:33:12.401Z,1.30
2019-01-27T07:36:35.295Z,1.30
2019-01-27T07:39:54.726Z,1.50
2019-01-27T07:43:23.049Z,5.63
2019-01-27T07:46:59.368Z,1.20
2019-01-27T07:50:27.825Z,1.10
2019-01-27T07:53:43.631Z,1.10
2019-01-27T07:57:22.909Z,1.10
2019-01-27T08:00:33.615Z,1.33
2019-01-27T08:04:09.931Z,1.10
2019-01-27T08:07:24.088Z,1.30
2019-01-27T08:10:37.719Z,1.40
2019-01-27T08:14:00.446Z,1.30
2019-01-27T08:17:11.645Z,1.23
2019-01-27T08:20:38.931Z,1.37
2019-01-27T08:23:57.969Z,1.13
2019-01-27T08:27:22.219Z,1.20
2019-01-27T08:30:52.429Z,1.20
2019-01-27T08:34:10.170Z,2.30
2019-01-27T08:37:23.951Z,1.10
2019-01-27T08:41:01.149Z,1.27
2019-01-27T08:44:41.839Z,1.70
2019-01-27T08:47:47.203Z,1.00
2019-01-27T08:50:52.459Z,1.10
2019-01-27T08:53:57.695Z,1.50
2019-01-27T08:57:02.979Z,1.40
2019-01-27T09:00:12.394Z,1.17
2019-01-27T09:03:36.833Z,1.30
2019-01-27T09:07:02.435Z,1.30
2019-01-27T09:10:27.918Z,1.17
2019-01-27T09:14:00.905Z,1.13
2019-01-27T09:17:26.000Z,1.30
2019-01-27T09:20:43.685Z,1.30
2019-01-27T09:24:08.774Z,1.40
2019-01-27T09:27:23.853Z,1.50
2019-01-27T09:30:51.087Z,1.77
2019-01-27T09:34:13.625Z,1.77
2019-01-27T09:37:43.833Z,1.50
2019-01-27T09:40:57.514Z,1.50
2019-01-27T09:44:20.374Z,2.20
2019-01-27T09:47:53.625Z,1.67
2019-01-27T09:51:13.999Z,2.30
2019-01-27T09:54:47.338Z,1.37
2019-01-27T09:58:01.286Z,1.33
2019-01-27T10:01:29.131Z,1.57
2019-01-27T10:04:53.307Z,1.30
2019-01-27T10:08:17.559Z,1.63
2019-01-27T10:11:44.823Z,1.80
2019-01-27T10:15:08.990Z,1.40
2019-01-27T10:18:42.215Z,1.80
2019-01-27T10:21:55.144Z,1.90
2019-01-27T10:25:35.775Z,3.00
2019-01-27T10:29:05.915Z,1.40
2019-01-27T10:32:26.346Z,1.60
2019-01-27T10:35:59.770Z,1.43
2019-01-27T10:39:36.080Z,1.50
2019-01-27T10:43:02.745Z,1.50
2019-01-27T10:46:31.199Z,1.60
2019-01-27T10:49:44.526Z,3.87
2019-01-27T10:53:05.614Z,1.50
2019-01-27T10:56:32.619Z,1.47
2019-01-27T10:59:57.858Z,2.00
2019-01-27T11:03:13.691Z,1.67
2019-01-27T11:06:36.301Z,3.43
2019-01-27T11:10:02.810Z,1.90
2019-01-27T11:13:18.548Z,1.50
2019-01-27T11:16:45.923Z,2.13
2019-01-27T11:20:10.049Z,3.93
2019-01-27T11:23:34.199Z,1.63
2019-01-27T11:26:55.572Z,2.10
2019-01-27T11:30:09.333Z,5.20
2019-01-27T11:33:32.179Z,2.00
2019-01-27T11:36:55.780Z,3.43
2019-01-27T11:40:10.563Z,1.80
2019-01-27T11:43:49.818Z,5.57
2019-01-27T11:47:21.758Z,1.90
2019-01-27T11:50:31.209Z,1.97
2019-01-27T11:53:36.588Z,2.20
2019-01-27T11:56:42.035Z,2.30
2019-01-27T11:59:47.327Z,1.73
2019-01-27T12:02:52.718Z,2.50
2019-01-27T12:05:57.992Z,2.70
2019-01-27T12:09:04.245Z,2.67
2019-01-27T12:12:09.540Z,2.97
2019-01-27T12:15:18.461Z,2.00
2019-01-27T12:18:23.752Z,2.70
2019-01-27T12:21:29.094Z,2.20
2019-01-27T12:24:34.461Z,4.13
2019-01-27T12:27:39.808Z,2.40
2019-01-27T12:30:45.138Z,4.63
2019-01-27T12:33:50.494Z,3.13
2019-01-27T12:36:55.779Z,2.10
2019-01-27T12:40:01.159Z,2.10
2019-01-27T12:43:06.534Z,2.27
2019-01-27T12:46:11.912Z,3.77
2019-01-27T12:49:17.233Z,2.40
2019-01-27T12:52:22.568Z,3.50
2019-01-27T12:55:27.957Z,2.20
2019-01-27T12:58:33.232Z,3.63
2019-01-27T13:01:39.046Z,2.20
2019-01-27T13:04:44.379Z,2.90
2019-01-27T13:07:49.807Z,2.90
2019-01-27T13:10:55.207Z,3.83
2019-01-27T13:14:00.589Z,3.70
2019-01-27T13:17:07.570Z,3.47
2019-01-27T13:20:13.215Z,6.60
2019-01-27T13:23:18.557Z,46.33
2019-01-27T13:26:23.823Z,7.63
2019-01-27T13:29:29.127Z,5.97
2019-01-27T13:32:34.581Z,5.07
2019-01-27T13:35:39.827Z,5.87
2019-01-27T13:38:51.027Z,6.67
2019-01-27T13:41:52.164Z,5.70
2019-01-27T13:44:57.518Z,6.07
2019-01-27T13:48:02.851Z,14.80
2019-01-27T13:51:08.218Z,30.40
2019-01-27T13:54:13.580Z,4.57
2019-01-27T13:57:18.878Z,8.70
2019-01-27T14:00:26.744Z,7.83
2019-01-27T14:03:32.012Z,3.07
2019-01-27T14:06:37.303Z,5.10
2019-01-27T14:09:42.629Z,4.00
2019-01-27T14:12:47.997Z,4.23
2019-01-27T14:15:53.372Z,3.13
2019-01-27T14:18:58.693Z,5.10
2019-01-27T14:22:06.486Z,4.30
2019-01-27T14:25:13.216Z,3.87
2019-01-27T14:28:18.686Z,4.40
2019-01-27T14:31:24.072Z,2.90
2019-01-27T14:34:29.334Z,2.70
2019-01-27T14:37:34.653Z,4.80
2019-01-27T14:40:40.156Z,2.30
2019-01-27T14:43:45.522Z,6.37
2019-01-27T14:46:50.846Z,2.60
2019-01-27T14:49:56.116Z,2.53
2019-01-27T14:53:02.640Z,2.60
2019-01-27T14:56:08.018Z,2.43
2019-01-27T14:59:13.411Z,3.57
2019-01-27T15:02:18.815Z,3.40
2019-01-27T15:05:24.186Z,7.03
2019-01-27T15:08:29.547Z,3.80
2019-01-27T15:11:34.887Z,2.77
2019-01-27T15:14:40.267Z,3.57
2019-01-27T15:17:45.687Z,5.13
2019-01-27T15:20:54.188Z,3.23
2019-01-27T15:23:59.432Z,3.50
2019-01-27T15:27:06.016Z,3.13
2019-01-27T15:30:15.507Z,5.20
2019-01-27T15:33:20.828Z,4.00
2019-01-27T15:36:26.218Z,3.30
2019-01-27T15:39:31.587Z,5.20
2019-01-27T15:42:37.014Z,5.00
2019-01-27T15:45:42.366Z,4.00
2019-01-27T15:48:49.247Z,8.97
2019-01-27T15:51:54.589Z,4.23
2019-01-27T15:55:00.003Z,4.37
2019-01-27T15:58:05.432Z,7.53
2019-01-27T16:01:11.558Z,5.87
2019-01-27T16:04:17.873Z,4.90
2019-01-27T16:07:23.141Z,4.90
2019-01-27T16:10:28.759Z,5.30
2019-01-27T16:13:34.103Z,8.70
2019-01-27T16:16:39.365Z,5.30
2019-01-27T16:19:44.623Z,4.97
2019-01-27T16:23:04.653Z,5.57
2019-01-27T16:26:10.001Z,6.37
2019-01-27T16:29:17.051Z,8.23
2019-01-27T16:32:29.200Z,13.03
2019-01-27T16:35:34.555Z,8.73
2019-01-27T16:38:39.818Z,14.00
2019-01-27T16:41:45.155Z,11.90
2019-01-27T16:44:50.448Z,12.60
2019-01-27T16:47:55.767Z,24.00
2019-01-27T16:51:01.072Z,12.10
2019-01-27T16:54:06.425Z,11.33
2019-01-27T16:57:11.773Z,15.53
2019-01-27T17:00:20.280Z,14.73
2019-01-27T17:03:25.739Z,16.20
2019-01-27T17:09:59.222Z,16.37
2019-01-27T17:13:15.715Z,15.63
2019-01-27T17:16:21.056Z,16.63
2019-01-27T17:19:38.023Z,19.50
2019-01-27T17:22:55.246Z,47.37
2019-01-27T17:26:12.287Z,31.37
2019-01-27T17:29:29.707Z,24.60
2019-01-27T17:32:46.377Z,21.47
2019-01-27T17:35:51.830Z,20.60
2019-01-27T17:39:09.649Z,18.80
2019-01-27T17:42:18.340Z,18.00
2019-01-27T17:45:42.723Z,24.50
2019-01-27T17:48:59.377Z,24.33
2019-01-27T17:52:16.360Z,23.57
2019-01-27T17:55:40.700Z,23.70
2019-01-27T18:02:54.675Z,10.60
2019-01-27T18:06:23.466Z,15.47
2019-01-27T18:10:01.993Z,9.30
2019-01-27T18:13:42.146Z,6.87
2019-01-27T18:16:59.150Z,6.10
2019-01-27T18:20:16.087Z,8.10
2019-01-27T18:23:33.445Z,7.33
2019-01-27T18:26:52.017Z,6.23
2019-01-27T18:30:08.709Z,8.20
2019-01-27T18:33:25.539Z,10.20
2019-01-27T18:36:30.972Z,10.73
2019-01-27T18:39:55.366Z,9.00
2019-01-27T18:43:11.895Z,10.53
2019-01-27T18:46:28.793Z,7.73
2019-01-27T18:49:45.632Z,15.10
2019-01-27T18:57:09.801Z,13.57
2019-01-27T19:00:45.405Z,8.97
2019-01-27T19:04:24.328Z,9.57
2019-01-27T19:11:46.699Z,7.13
2019-01-27T19:15:23.892Z,11.90
2019-01-27T19:18:59.742Z,10.47
2019-01-27T19:22:35.249Z,8.50
2019-01-27T19:26:12.209Z,14.70
2019-01-27T19:33:32.302Z,14.17
2019-01-27T19:37:14.390Z,11.77
2019-01-27T19:43:52.012Z,11.10
2019-01-27T19:47:16.162Z,19.97
2019-01-27T19:50:55.214Z,13.00
2019-01-27T19:54:23.831Z,11.67
2019-01-27T19:57:49.091Z,17.70
2019-01-27T20:01:13.330Z,17.60
2019-01-27T20:04:37.508Z,34.97
2019-01-27T20:08:16.381Z,20.03
2019-01-27T20:15:23.461Z,23.73
2019-01-27T20:19:02.196Z,36.63
2019-01-27T20:22:39.271Z,24.07
2019-01-27T20:26:16.255Z,38.03
2019-01-27T20:29:58.269Z,39.83
2019-01-27T20:33:14.608Z,27.93
2019-01-27T20:36:39.616Z,16.50
2019-01-27T20:40:03.836Z,21.33
2019-01-27T20:43:39.630Z,32.23
2019-01-27T20:47:15.866Z,15.57
2019-01-27T20:54:29.910Z,18.77
2019-01-27T20:58:06.168Z,26.97
2019-01-27T21:01:49.851Z,18.30
2019-01-27T21:09:10.290Z,16.63
2019-01-27T21:12:34.429Z,11.93
2019-01-27T21:16:13.399Z,20.07
2019-01-27T21:19:38.382Z,19.87
2019-01-27T21:23:03.046Z,16.20
2019-01-27T21:26:08.355Z,18.10
2019-01-27T21:29:25.364Z,12.77
2019-01-27T21:32:42.720Z,13.67
2019-01-27T21:35:48.234Z,17.70
2019-01-27T21:39:12.666Z,21.00
2019-01-27T21:42:35.797Z,13.43
2019-01-27T21:45:53.023Z,18.30
2019-01-27T21:49:09.993Z,14.43
2019-01-27T21:52:27.042Z,14.33
2019-01-27T21:55:47.703Z,13.17
2019-01-27T21:58:53.966Z,15.10
2019-01-27T22:02:18.287Z,8.23
2019-01-27T22:05:35.200Z,14.83
2019-01-27T22:08:51.835Z,18.87
2019-01-27T22:15:37.963Z,12.63
2019-01-27T22:18:43.206Z,14.40
2019-01-27T22:21:59.737Z,15.13
2019-01-27T22:25:16.989Z,15.47
2019-01-27T22:28:35.679Z,15.30
2019-01-27T22:31:52.351Z,15.00
2019-01-27T22:35:13.649Z,11.67
2019-01-27T22:38:30.418Z,12.83
2019-01-27T22:41:46.776Z,13.20
2019-01-27T22:45:03.195Z,13.20
2019-01-27T22:48:23.483Z,13.67
2019-01-27T22:51:42.259Z,15.27
2019-01-27T22:54:58.704Z,19.00
2019-01-27T22:58:16.044Z,15.70
2019-01-27T23:01:33.183Z,17.40
2019-01-27T23:04:50.261Z,20.23
2019-01-27T23:08:07.549Z,19.23
2019-01-27T23:11:24.758Z,17.30
2019-01-27T23:14:41.878Z,27.63
2019-01-27T23:17:58.929Z,24.83
2019-01-27T23:21:15.820Z,20.27
2019-01-27T23:24:35.056Z,23.17
2019-01-27T23:27:40.345Z,23.80
2019-01-27T23:31:06.181Z,24.77
2019-01-27T23:34:23.129Z,23.80
2019-01-27T23:37:39.840Z,24.10
2019-01-27T23:41:01.003Z,22.20
2019-01-27T23:44:18.135Z,29.57
2019-01-27T23:47:35.490Z,25.90
2019-01-27T23:50:52.114Z,25.13
2019-01-27T23:57:54.066Z,31.47
